Main page
METAR-TAF:

METAR-TAF

Airports :

Nancy-Essey Airport

Nancy, France

latitude: 48-41N, longitude: 006-13E, elevation: 225 m

Current weather observation

The report was made 34 minutes ago, at 18:30 UTC
Wind 3 kt from the West/Southwest, varying between South and West
Temperature 17°C
Humidity 94%
Pressure 1008 hPa
Visibility: 2100 m
heavy rain,

METAR: LFSN 141830Z AUTO 24003KT 180V280 9999 2100 +RA SCT032/// BKN038/// OVC045/// ///TCU 17/16 Q1008

Time: 21:04 (19:04 UTC)


TAF: missing

Weather observations and forecasts of more than 4000 airports (METAR and TAF reports).

The available stations are represented by yellow and red dots on the map.

Hover mouse over dot to see the name of the station.

Then click to see weather observations and forecasts.

To change the map : click on the green buttons with a black cross to zoom in, on the green button with a dash to zoom out, or on the green arrows for adjacent maps.


METAR-TAF: